sensor_id;sensor_type;location;lat;lon;timestamp;P1;durP1;ratioP1;P2;durP2;ratioP2
41966;SDS011;27656;53.068;8.818;2024-02-28T00:00:32;25.93;;;14.60;;
41966;SDS011;27656;53.068;8.818;2024-02-28T00:02:59;30.27;;;15.23;;
41966;SDS011;27656;53.068;8.818;2024-02-28T00:05:25;34.90;;;16.33;;
41966;SDS011;27656;53.068;8.818;2024-02-28T00:07:51;31.30;;;16.43;;
41966;SDS011;27656;53.068;8.818;2024-02-28T00:10:19;34.47;;;17.53;;
41966;SDS011;27656;53.068;8.818;2024-02-28T00:12:46;33.33;;;18.37;;
41966;SDS011;27656;53.068;8.818;2024-02-28T00:15:12;33.60;;;17.93;;
41966;SDS011;27656;53.068;8.818;2024-02-28T00:17:39;32.13;;;16.37;;
41966;SDS011;27656;53.068;8.818;2024-02-28T00:20:09;31.17;;;16.33;;
41966;SDS011;27656;53.068;8.818;2024-02-28T00:22:36;30.07;;;15.60;;
41966;SDS011;27656;53.068;8.818;2024-02-28T00:25:05;32.23;;;16.80;;
41966;SDS011;27656;53.068;8.818;2024-02-28T00:27:33;31.23;;;16.47;;
41966;SDS011;27656;53.068;8.818;2024-02-28T00:30:01;31.03;;;15.70;;
41966;SDS011;27656;53.068;8.818;2024-02-28T00:32:27;33.10;;;16.90;;
41966;SDS011;27656;53.068;8.818;2024-02-28T00:34:54;34.53;;;17.27;;
41966;SDS011;27656;53.068;8.818;2024-02-28T00:37:20;31.97;;;16.37;;
41966;SDS011;27656;53.068;8.818;2024-02-28T00:39:48;34.03;;;17.80;;
41966;SDS011;27656;53.068;8.818;2024-02-28T00:42:16;28.63;;;15.20;;
41966;SDS011;27656;53.068;8.818;2024-02-28T00:44:42;27.40;;;15.33;;
41966;SDS011;27656;53.068;8.818;2024-02-28T00:47:09;28.13;;;14.30;;
41966;SDS011;27656;53.068;8.818;2024-02-28T00:49:36;28.33;;;15.57;;
41966;SDS011;27656;53.068;8.818;2024-02-28T00:52:03;28.17;;;13.67;;
41966;SDS011;27656;53.068;8.818;2024-02-28T00:54:30;27.07;;;14.00;;
41966;SDS011;27656;53.068;8.818;2024-02-28T00:56:57;30.30;;;15.37;;
41966;SDS011;27656;53.068;8.818;2024-02-28T00:59:23;36.10;;;16.67;;
41966;SDS011;27656;53.068;8.818;2024-02-28T01:01:50;32.77;;;17.47;;
41966;SDS011;27656;53.068;8.818;2024-02-28T01:04:16;33.53;;;17.13;;
41966;SDS011;27656;53.068;8.818;2024-02-28T01:06:43;31.73;;;16.20;;
41966;SDS011;27656;53.068;8.818;2024-02-28T01:09:09;33.17;;;15.77;;
41966;SDS011;27656;53.068;8.818;2024-02-28T01:11:36;32.33;;;16.10;;
41966;SDS011;27656;53.068;8.818;2024-02-28T01:14:03;31.90;;;17.03;;
41966;SDS011;27656;53.068;8.818;2024-02-28T01:16:30;30.00;;;16.17;;
41966;SDS011;27656;53.068;8.818;2024-02-28T01:18:57;28.13;;;14.87;;
41966;SDS011;27656;53.068;8.818;2024-02-28T01:21:23;27.40;;;14.20;;
41966;SDS011;27656;53.068;8.818;2024-02-28T01:23:51;28.13;;;13.70;;
41966;SDS011;27656;53.068;8.818;2024-02-28T01:26:17;28.00;;;14.40;;
41966;SDS011;27656;53.068;8.818;2024-02-28T01:28:46;26.50;;;14.03;;
41966;SDS011;27656;53.068;8.818;2024-02-28T01:31:13;27.83;;;13.80;;
41966;SDS011;27656;53.068;8.818;2024-02-28T01:33:39;31.30;;;15.43;;
41966;SDS011;27656;53.068;8.818;2024-02-28T01:36:06;32.77;;;15.43;;
41966;SDS011;27656;53.068;8.818;2024-02-28T01:38:33;29.33;;;14.90;;
41966;SDS011;27656;53.068;8.818;2024-02-28T01:40:59;31.13;;;16.43;;
41966;SDS011;27656;53.068;8.818;2024-02-28T01:43:26;32.90;;;16.40;;
41966;SDS011;27656;53.068;8.818;2024-02-28T01:45:52;34.93;;;16.93;;
41966;SDS011;27656;53.068;8.818;2024-02-28T01:48:19;32.23;;;14.53;;
41966;SDS011;27656;53.068;8.818;2024-02-28T01:50:45;32.37;;;15.17;;
41966;SDS011;27656;53.068;8.818;2024-02-28T01:53:12;32.87;;;15.80;;
41966;SDS011;27656;53.068;8.818;2024-02-28T01:55:40;33.77;;;16.70;;
41966;SDS011;27656;53.068;8.818;2024-02-28T01:58:06;35.17;;;17.23;;
41966;SDS011;27656;53.068;8.818;2024-02-28T02:00:33;35.77;;;17.43;;
41966;SDS011;27656;53.068;8.818;2024-02-28T02:03:00;37.27;;;18.50;;
41966;SDS011;27656;53.068;8.818;2024-02-28T02:05:27;35.23;;;17.13;;
41966;SDS011;27656;53.068;8.818;2024-02-28T02:07:54;33.03;;;16.43;;
41966;SDS011;27656;53.068;8.818;2024-02-28T02:10:23;32.67;;;16.03;;
41966;SDS011;27656;53.068;8.818;2024-02-28T02:12:51;31.93;;;16.27;;
41966;SDS011;27656;53.068;8.818;2024-02-28T02:15:18;34.40;;;16.37;;
41966;SDS011;27656;53.068;8.818;2024-02-28T02:17:45;39.00;;;17.80;;
41966;SDS011;27656;53.068;8.818;2024-02-28T02:20:11;32.53;;;16.47;;
41966;SDS011;27656;53.068;8.818;2024-02-28T02:22:41;35.60;;;16.00;;
41966;SDS011;27656;53.068;8.818;2024-02-28T02:25:08;33.73;;;15.77;;
41966;SDS011;27656;53.068;8.818;2024-02-28T02:27:35;32.37;;;14.97;;
41966;SDS011;27656;53.068;8.818;2024-02-28T02:30:01;34.17;;;16.23;;
41966;SDS011;27656;53.068;8.818;2024-02-28T02:32:29;32.57;;;15.57;;
41966;SDS011;27656;53.068;8.818;2024-02-28T02:34:56;28.13;;;14.07;;
41966;SDS011;27656;53.068;8.818;2024-02-28T02:37:22;32.03;;;16.17;;
41966;SDS011;27656;53.068;8.818;2024-02-28T02:39:49;34.90;;;16.47;;
41966;SDS011;27656;53.068;8.818;2024-02-28T02:42:15;38.70;;;18.13;;
41966;SDS011;27656;53.068;8.818;2024-02-28T02:44:42;39.07;;;18.67;;
41966;SDS011;27656;53.068;8.818;2024-02-28T02:47:08;36.70;;;18.00;;
41966;SDS011;27656;53.068;8.818;2024-02-28T02:49:35;34.27;;;16.47;;
41966;SDS011;27656;53.068;8.818;2024-02-28T02:52:02;34.57;;;16.83;;
41966;SDS011;27656;53.068;8.818;2024-02-28T02:54:28;33.33;;;16.67;;
41966;SDS011;27656;53.068;8.818;2024-02-28T02:56:55;36.97;;;18.00;;
41966;SDS011;27656;53.068;8.818;2024-02-28T02:59:21;38.63;;;18.37;;
41966;SDS011;27656;53.068;8.818;2024-02-28T03:01:49;39.33;;;17.90;;
41966;SDS011;27656;53.068;8.818;2024-02-28T03:04:15;33.83;;;17.27;;
41966;SDS011;27656;53.068;8.818;2024-02-28T03:06:42;35.03;;;16.10;;
41966;SDS011;27656;53.068;8.818;2024-02-28T03:09:08;32.43;;;16.00;;
41966;SDS011;27656;53.068;8.818;2024-02-28T03:11:35;33.43;;;16.93;;
41966;SDS011;27656;53.068;8.818;2024-02-28T03:14:02;41.53;;;17.50;;
41966;SDS011;27656;53.068;8.818;2024-02-28T03:16:28;38.00;;;17.50;;
41966;SDS011;27656;53.068;8.818;2024-02-28T03:18:55;37.67;;;18.17;;
41966;SDS011;27656;53.068;8.818;2024-02-28T03:21:22;41.97;;;19.43;;
41966;SDS011;27656;53.068;8.818;2024-02-28T03:23:49;41.60;;;20.37;;
41966;SDS011;27656;53.068;8.818;2024-02-28T03:26:16;45.20;;;21.53;;
41966;SDS011;27656;53.068;8.818;2024-02-28T03:28:42;38.70;;;19.50;;
41966;SDS011;27656;53.068;8.818;2024-02-28T03:31:09;41.07;;;20.27;;
41966;SDS011;27656;53.068;8.818;2024-02-28T03:33:35;46.87;;;22.63;;
41966;SDS011;27656;53.068;8.818;2024-02-28T03:36:02;42.53;;;21.57;;
41966;SDS011;27656;53.068;8.818;2024-02-28T03:38:28;45.20;;;22.07;;
41966;SDS011;27656;53.068;8.818;2024-02-28T03:40:55;41.63;;;20.43;;
41966;SDS011;27656;53.068;8.818;2024-02-28T03:43:21;44.57;;;20.67;;
41966;SDS011;27656;53.068;8.818;2024-02-28T03:45:48;41.93;;;21.17;;
41966;SDS011;27656;53.068;8.818;2024-02-28T03:48:16;43.37;;;21.43;;
41966;SDS011;27656;53.068;8.818;2024-02-28T03:50:43;41.87;;;21.47;;
41966;SDS011;27656;53.068;8.818;2024-02-28T03:53:09;41.93;;;21.13;;
41966;SDS011;27656;53.068;8.818;2024-02-28T03:55:36;45.17;;;21.97;;
41966;SDS011;27656;53.068;8.818;2024-02-28T03:58:04;44.97;;;21.27;;
41966;SDS011;27656;53.068;8.818;2024-02-28T04:00:33;42.17;;;21.57;;
41966;SDS011;27656;53.068;8.818;2024-02-28T04:02:59;41.80;;;20.23;;
41966;SDS011;27656;53.068;8.818;2024-02-28T04:05:26;48.33;;;22.07;;
41966;SDS011;27656;53.068;8.818;2024-02-28T04:07:53;48.63;;;23.17;;
41966;SDS011;27656;53.068;8.818;2024-02-28T04:10:19;49.80;;;22.43;;
41966;SDS011;27656;53.068;8.818;2024-02-28T04:12:46;50.70;;;22.77;;
41966;SDS011;27656;53.068;8.818;2024-02-28T04:15:13;50.60;;;22.77;;
41966;SDS011;27656;53.068;8.818;2024-02-28T04:17:41;51.10;;;22.77;;
41966;SDS011;27656;53.068;8.818;2024-02-28T04:20:12;47.93;;;22.03;;
41966;SDS011;27656;53.068;8.818;2024-02-28T04:22:39;43.77;;;21.73;;
41966;SDS011;27656;53.068;8.818;2024-02-28T04:25:07;51.03;;;23.27;;
41966;SDS011;27656;53.068;8.818;2024-02-28T04:27:35;46.90;;;20.20;;
41966;SDS011;27656;53.068;8.818;2024-02-28T04:30:02;50.17;;;22.10;;
41966;SDS011;27656;53.068;8.818;2024-02-28T04:32:29;43.30;;;20.57;;
41966;SDS011;27656;53.068;8.818;2024-02-28T04:34:55;47.13;;;22.77;;
41966;SDS011;27656;53.068;8.818;2024-02-28T04:37:22;40.40;;;20.87;;
41966;SDS011;27656;53.068;8.818;2024-02-28T04:39:49;43.40;;;20.83;;
41966;SDS011;27656;53.068;8.818;2024-02-28T04:42:16;43.23;;;21.97;;
41966;SDS011;27656;53.068;8.818;2024-02-28T04:44:42;41.93;;;19.90;;
41966;SDS011;27656;53.068;8.818;2024-02-28T04:47:09;41.87;;;20.37;;
41966;SDS011;27656;53.068;8.818;2024-02-28T04:49:38;49.27;;;21.33;;
41966;SDS011;27656;53.068;8.818;2024-02-28T04:52:05;50.10;;;21.73;;
41966;SDS011;27656;53.068;8.818;2024-02-28T04:54:32;48.57;;;21.93;;
41966;SDS011;27656;53.068;8.818;2024-02-28T04:56:59;48.27;;;21.87;;
41966;SDS011;27656;53.068;8.818;2024-02-28T04:59:26;48.70;;;22.50;;
41966;SDS011;27656;53.068;8.818;2024-02-28T05:01:53;43.43;;;21.00;;
41966;SDS011;27656;53.068;8.818;2024-02-28T05:04:19;43.97;;;20.97;;
41966;SDS011;27656;53.068;8.818;2024-02-28T05:06:47;44.80;;;21.83;;
41966;SDS011;27656;53.068;8.818;2024-02-28T05:09:13;49.07;;;23.23;;
41966;SDS011;27656;53.068;8.818;2024-02-28T05:11:40;48.70;;;21.80;;
41966;SDS011;27656;53.068;8.818;2024-02-28T05:14:08;47.20;;;21.07;;
41966;SDS011;27656;53.068;8.818;2024-02-28T05:16:36;52.77;;;24.20;;
41966;SDS011;27656;53.068;8.818;2024-02-28T05:19:03;50.90;;;22.80;;
41966;SDS011;27656;53.068;8.818;2024-02-28T05:21:30;53.47;;;24.20;;
41966;SDS011;27656;53.068;8.818;2024-02-28T05:23:57;53.63;;;24.03;;
41966;SDS011;27656;53.068;8.818;2024-02-28T05:26:24;55.80;;;25.13;;
41966;SDS011;27656;53.068;8.818;2024-02-28T05:28:51;60.17;;;26.17;;
41966;SDS011;27656;53.068;8.818;2024-02-28T05:31:22;58.73;;;26.37;;
41966;SDS011;27656;53.068;8.818;2024-02-28T05:33:52;68.27;;;27.47;;
41966;SDS011;27656;53.068;8.818;2024-02-28T05:36:21;76.20;;;30.17;;
41966;SDS011;27656;53.068;8.818;2024-02-28T05:38:49;78.93;;;29.30;;
41966;SDS011;27656;53.068;8.818;2024-02-28T05:41:16;85.57;;;31.10;;
41966;SDS011;27656;53.068;8.818;2024-02-28T05:43:43;87.93;;;31.10;;
41966;SDS011;27656;53.068;8.818;2024-02-28T05:46:10;101.00;;;34.70;;
41966;SDS011;27656;53.068;8.818;2024-02-28T05:48:37;96.07;;;32.60;;
41966;SDS011;27656;53.068;8.818;2024-02-28T05:51:04;109.60;;;35.03;;
41966;SDS011;27656;53.068;8.818;2024-02-28T05:53:30;103.17;;;31.53;;
41966;SDS011;27656;53.068;8.818;2024-02-28T05:56:03;95.27;;;33.53;;
41966;SDS011;27656;53.068;8.818;2024-02-28T05:58:30;96.53;;;32.03;;
41966;SDS011;27656;53.068;8.818;2024-02-28T06:00:57;87.47;;;30.33;;
41966;SDS011;27656;53.068;8.818;2024-02-28T06:03:23;86.57;;;30.87;;
41966;SDS011;27656;53.068;8.818;2024-02-28T06:05:50;90.30;;;31.20;;
41966;SDS011;27656;53.068;8.818;2024-02-28T06:08:16;92.27;;;31.57;;
41966;SDS011;27656;53.068;8.818;2024-02-28T06:10:43;89.70;;;32.43;;
41966;SDS011;27656;53.068;8.818;2024-02-28T06:13:12;83.17;;;30.37;;
41966;SDS011;27656;53.068;8.818;2024-02-28T06:15:39;88.00;;;30.27;;
41966;SDS011;27656;53.068;8.818;2024-02-28T06:18:06;85.70;;;31.23;;
41966;SDS011;27656;53.068;8.818;2024-02-28T06:20:32;83.00;;;29.27;;
41966;SDS011;27656;53.068;8.818;2024-02-28T06:22:59;83.63;;;29.80;;
41966;SDS011;27656;53.068;8.818;2024-02-28T06:25:35;89.33;;;32.30;;
41966;SDS011;27656;53.068;8.818;2024-02-28T06:28:01;84.97;;;30.97;;
41966;SDS011;27656;53.068;8.818;2024-02-28T06:30:33;86.70;;;30.20;;
41966;SDS011;27656;53.068;8.818;2024-02-28T06:33:00;78.57;;;28.00;;
41966;SDS011;27656;53.068;8.818;2024-02-28T06:35:27;83.57;;;30.87;;
41966;SDS011;27656;53.068;8.818;2024-02-28T06:37:53;88.23;;;31.20;;
41966;SDS011;27656;53.068;8.818;2024-02-28T06:40:20;89.47;;;30.83;;
41966;SDS011;27656;53.068;8.818;2024-02-28T06:42:47;83.60;;;28.23;;
41966;SDS011;27656;53.068;8.818;2024-02-28T06:45:13;75.60;;;27.90;;
41966;SDS011;27656;53.068;8.818;2024-02-28T06:47:40;84.30;;;28.33;;
41966;SDS011;27656;53.068;8.818;2024-02-28T06:50:06;87.77;;;30.33;;
41966;SDS011;27656;53.068;8.818;2024-02-28T06:52:33;81.67;;;29.10;;
41966;SDS011;27656;53.068;8.818;2024-02-28T06:55:01;74.23;;;27.03;;
41966;SDS011;27656;53.068;8.818;2024-02-28T06:57:30;81.93;;;28.33;;
41966;SDS011;27656;53.068;8.818;2024-02-28T06:59:56;77.07;;;27.07;;
41966;SDS011;27656;53.068;8.818;2024-02-28T07:02:22;71.57;;;27.10;;
41966;SDS011;27656;53.068;8.818;2024-02-28T07:04:49;66.57;;;24.90;;
41966;SDS011;27656;53.068;8.818;2024-02-28T07:07:16;64.83;;;25.97;;
41966;SDS011;27656;53.068;8.818;2024-02-28T07:09:42;62.17;;;23.80;;
41966;SDS011;27656;53.068;8.818;2024-02-28T07:12:09;65.70;;;24.47;;
41966;SDS011;27656;53.068;8.818;2024-02-28T07:14:35;57.43;;;23.33;;
41966;SDS011;27656;53.068;8.818;2024-02-28T07:17:03;63.27;;;25.03;;
41966;SDS011;27656;53.068;8.818;2024-02-28T07:19:29;63.00;;;24.07;;
41966;SDS011;27656;53.068;8.818;2024-02-28T07:21:56;58.00;;;23.83;;
41966;SDS011;27656;53.068;8.818;2024-02-28T07:24:22;57.20;;;22.40;;
41966;SDS011;27656;53.068;8.818;2024-02-28T07:26:49;51.77;;;22.33;;
41966;SDS011;27656;53.068;8.818;2024-02-28T07:29:17;49.53;;;21.40;;
41966;SDS011;27656;53.068;8.818;2024-02-28T07:31:43;53.77;;;22.70;;
41966;SDS011;27656;53.068;8.818;2024-02-28T07:34:11;49.87;;;20.50;;
41966;SDS011;27656;53.068;8.818;2024-02-28T07:36:38;51.00;;;22.67;;
41966;SDS011;27656;53.068;8.818;2024-02-28T07:39:04;45.57;;;19.87;;
41966;SDS011;27656;53.068;8.818;2024-02-28T07:41:31;43.13;;;19.73;;
41966;SDS011;27656;53.068;8.818;2024-02-28T07:43:58;45.13;;;20.93;;
41966;SDS011;27656;53.068;8.818;2024-02-28T07:46:25;47.37;;;19.97;;
41966;SDS011;27656;53.068;8.818;2024-02-28T07:48:51;47.07;;;20.70;;
41966;SDS011;27656;53.068;8.818;2024-02-28T07:51:18;41.03;;;19.57;;
41966;SDS011;27656;53.068;8.818;2024-02-28T07:53:44;42.87;;;18.70;;
41966;SDS011;27656;53.068;8.818;2024-02-28T07:56:19;39.97;;;18.20;;
41966;SDS011;27656;53.068;8.818;2024-02-28T07:58:47;38.30;;;18.17;;
41966;SDS011;27656;53.068;8.818;2024-02-28T08:01:14;38.43;;;17.63;;
41966;SDS011;27656;53.068;8.818;2024-02-28T08:03:42;42.57;;;19.33;;
41966;SDS011;27656;53.068;8.818;2024-02-28T08:06:10;34.77;;;16.73;;
41966;SDS011;27656;53.068;8.818;2024-02-28T08:08:37;37.40;;;17.03;;
41966;SDS011;27656;53.068;8.818;2024-02-28T08:11:03;34.10;;;15.60;;
41966;SDS011;27656;53.068;8.818;2024-02-28T08:13:30;32.70;;;16.20;;
41966;SDS011;27656;53.068;8.818;2024-02-28T08:15:59;37.57;;;18.53;;
41966;SDS011;27656;53.068;8.818;2024-02-28T08:18:26;35.93;;;17.30;;
41966;SDS011;27656;53.068;8.818;2024-02-28T08:20:54;39.50;;;18.20;;
41966;SDS011;27656;53.068;8.818;2024-02-28T08:23:23;34.93;;;15.93;;
41966;SDS011;27656;53.068;8.818;2024-02-28T08:25:52;34.00;;;17.63;;
41966;SDS011;27656;53.068;8.818;2024-02-28T08:28:19;34.93;;;17.20;;
41966;SDS011;27656;53.068;8.818;2024-02-28T08:30:45;35.70;;;16.70;;
41966;SDS011;27656;53.068;8.818;2024-02-28T08:33:12;28.63;;;13.83;;
41966;SDS011;27656;53.068;8.818;2024-02-28T08:35:39;32.87;;;16.17;;
41966;SDS011;27656;53.068;8.818;2024-02-28T08:38:05;33.80;;;16.33;;
41966;SDS011;27656;53.068;8.818;2024-02-28T08:40:32;27.93;;;15.30;;
41966;SDS011;27656;53.068;8.818;2024-02-28T08:42:58;30.83;;;14.97;;
41966;SDS011;27656;53.068;8.818;2024-02-28T08:45:25;28.83;;;15.13;;
41966;SDS011;27656;53.068;8.818;2024-02-28T08:47:52;29.60;;;15.43;;
41966;SDS011;27656;53.068;8.818;2024-02-28T08:50:19;29.00;;;15.00;;
41966;SDS011;27656;53.068;8.818;2024-02-28T08:52:46;28.90;;;15.53;;
41966;SDS011;27656;53.068;8.818;2024-02-28T08:55:12;28.83;;;15.10;;
41966;SDS011;27656;53.068;8.818;2024-02-28T08:57:39;30.40;;;15.23;;
41966;SDS011;27656;53.068;8.818;2024-02-28T09:00:05;29.27;;;15.10;;
41966;SDS011;27656;53.068;8.818;2024-02-28T09:02:35;28.60;;;13.97;;
41966;SDS011;27656;53.068;8.818;2024-02-28T09:05:03;27.67;;;15.00;;
41966;SDS011;27656;53.068;8.818;2024-02-28T09:07:30;29.00;;;15.17;;
41966;SDS011;27656;53.068;8.818;2024-02-28T09:09:57;27.80;;;14.60;;
41966;SDS011;27656;53.068;8.818;2024-02-28T09:12:23;27.17;;;14.97;;
41966;SDS011;27656;53.068;8.818;2024-02-28T09:14:50;29.73;;;15.70;;
41966;SDS011;27656;53.068;8.818;2024-02-28T09:17:23;23.17;;;13.37;;
41966;SDS011;27656;53.068;8.818;2024-02-28T09:19:50;28.67;;;14.17;;
41966;SDS011;27656;53.068;8.818;2024-02-28T09:22:17;25.80;;;14.23;;
41966;SDS011;27656;53.068;8.818;2024-02-28T09:24:44;25.77;;;14.57;;
41966;SDS011;27656;53.068;8.818;2024-02-28T09:27:10;26.77;;;14.70;;
41966;SDS011;27656;53.068;8.818;2024-02-28T09:29:37;28.33;;;15.83;;
41966;SDS011;27656;53.068;8.818;2024-02-28T09:32:04;26.33;;;14.20;;
41966;SDS011;27656;53.068;8.818;2024-02-28T09:34:31;26.37;;;14.60;;
41966;SDS011;27656;53.068;8.818;2024-02-28T09:36:57;28.53;;;15.47;;
41966;SDS011;27656;53.068;8.818;2024-02-28T09:39:24;25.27;;;14.73;;
41966;SDS011;27656;53.068;8.818;2024-02-28T09:41:51;28.33;;;15.10;;
41966;SDS011;27656;53.068;8.818;2024-02-28T09:44:22;25.33;;;14.47;;
41966;SDS011;27656;53.068;8.818;2024-02-28T09:46:50;26.43;;;15.10;;
41966;SDS011;27656;53.068;8.818;2024-02-28T09:49:18;25.83;;;14.60;;
41966;SDS011;27656;53.068;8.818;2024-02-28T09:51:45;25.50;;;15.23;;
41966;SDS011;27656;53.068;8.818;2024-02-28T09:54:16;28.67;;;14.50;;
41966;SDS011;27656;53.068;8.818;2024-02-28T09:56:43;28.23;;;15.27;;
41966;SDS011;27656;53.068;8.818;2024-02-28T09:59:10;27.53;;;15.50;;
41966;SDS011;27656;53.068;8.818;2024-02-28T10:01:42;29.30;;;15.20;;
41966;SDS011;27656;53.068;8.818;2024-02-28T10:04:13;28.73;;;15.90;;
41966;SDS011;27656;53.068;8.818;2024-02-28T10:06:40;30.73;;;16.43;;
41966;SDS011;27656;53.068;8.818;2024-02-28T10:09:07;28.73;;;15.13;;
41966;SDS011;27656;53.068;8.818;2024-02-28T10:11:33;27.27;;;15.40;;
41966;SDS011;27656;53.068;8.818;2024-02-28T10:14:02;31.80;;;15.63;;
41966;SDS011;27656;53.068;8.818;2024-02-28T10:16:29;32.57;;;16.50;;
41966;SDS011;27656;53.068;8.818;2024-02-28T10:18:55;37.27;;;16.90;;
41966;SDS011;27656;53.068;8.818;2024-02-28T10:21:22;32.13;;;17.17;;
41966;SDS011;27656;53.068;8.818;2024-02-28T10:23:49;32.43;;;16.23;;
41966;SDS011;27656;53.068;8.818;2024-02-28T10:26:16;31.60;;;16.53;;
41966;SDS011;27656;53.068;8.818;2024-02-28T10:28:42;37.53;;;17.67;;
41966;SDS011;27656;53.068;8.818;2024-02-28T10:31:12;36.30;;;17.73;;
41966;SDS011;27656;53.068;8.818;2024-02-28T10:33:41;36.87;;;18.03;;
41966;SDS011;27656;53.068;8.818;2024-02-28T10:36:08;34.27;;;16.53;;
41966;SDS011;27656;53.068;8.818;2024-02-28T10:38:35;30.27;;;16.13;;
41966;SDS011;27656;53.068;8.818;2024-02-28T10:41:04;33.70;;;15.97;;
41966;SDS011;27656;53.068;8.818;2024-02-28T10:43:35;35.27;;;17.10;;
41966;SDS011;27656;53.068;8.818;2024-02-28T10:46:02;37.20;;;17.07;;
41966;SDS011;27656;53.068;8.818;2024-02-28T10:48:31;37.13;;;16.90;;
41966;SDS011;27656;53.068;8.818;2024-02-28T10:50:58;34.40;;;16.60;;
41966;SDS011;27656;53.068;8.818;2024-02-28T10:53:31;35.73;;;16.17;;
41966;SDS011;27656;53.068;8.818;2024-02-28T10:56:02;38.03;;;17.87;;
41966;SDS011;27656;53.068;8.818;2024-02-28T10:58:34;34.37;;;16.83;;
41966;SDS011;27656;53.068;8.818;2024-02-28T11:01:05;34.67;;;17.10;;
41966;SDS011;27656;53.068;8.818;2024-02-28T11:03:32;35.63;;;17.77;;
41966;SDS011;27656;53.068;8.818;2024-02-28T11:05:59;35.67;;;17.60;;
41966;SDS011;27656;53.068;8.818;2024-02-28T11:08:26;33.80;;;16.67;;
41966;SDS011;27656;53.068;8.818;2024-02-28T11:10:55;36.97;;;17.90;;
41966;SDS011;27656;53.068;8.818;2024-02-28T11:13:26;41.43;;;18.27;;
41966;SDS011;27656;53.068;8.818;2024-02-28T11:15:53;38.53;;;17.70;;
41966;SDS011;27656;53.068;8.818;2024-02-28T11:18:21;36.37;;;17.73;;
41966;SDS011;27656;53.068;8.818;2024-02-28T11:20:48;40.93;;;18.47;;
41966;SDS011;27656;53.068;8.818;2024-02-28T11:23:17;39.70;;;17.73;;
41966;SDS011;27656;53.068;8.818;2024-02-28T11:25:44;38.10;;;17.60;;
41966;SDS011;27656;53.068;8.818;2024-02-28T11:28:10;41.37;;;18.53;;
41966;SDS011;27656;53.068;8.818;2024-02-28T11:30:37;38.53;;;18.27;;
41966;SDS011;27656;53.068;8.818;2024-02-28T11:33:03;46.87;;;19.37;;
41966;SDS011;27656;53.068;8.818;2024-02-28T11:35:32;38.37;;;18.43;;
41966;SDS011;27656;53.068;8.818;2024-02-28T11:37:59;43.13;;;18.47;;
41966;SDS011;27656;53.068;8.818;2024-02-28T11:40:25;47.17;;;18.97;;
41966;SDS011;27656;53.068;8.818;2024-02-28T11:42:54;45.23;;;18.70;;
41966;SDS011;27656;53.068;8.818;2024-02-28T11:45:21;42.50;;;19.77;;
41966;SDS011;27656;53.068;8.818;2024-02-28T11:47:48;45.73;;;19.07;;
41966;SDS011;27656;53.068;8.818;2024-02-28T11:50:14;44.33;;;19.90;;
41966;SDS011;27656;53.068;8.818;2024-02-28T11:52:42;46.60;;;20.07;;
41966;SDS011;27656;53.068;8.818;2024-02-28T11:55:08;46.30;;;19.07;;
41966;SDS011;27656;53.068;8.818;2024-02-28T11:57:36;48.33;;;20.60;;
41966;SDS011;27656;53.068;8.818;2024-02-28T12:00:03;42.07;;;18.83;;
41966;SDS011;27656;53.068;8.818;2024-02-28T12:02:31;46.13;;;20.10;;
41966;SDS011;27656;53.068;8.818;2024-02-28T12:05:04;49.33;;;21.67;;
41966;SDS011;27656;53.068;8.818;2024-02-28T12:07:31;46.53;;;19.53;;
41966;SDS011;27656;53.068;8.818;2024-02-28T12:09:59;47.20;;;20.20;;
41966;SDS011;27656;53.068;8.818;2024-02-28T12:12:29;44.53;;;20.20;;
41966;SDS011;27656;53.068;8.818;2024-02-28T12:14:59;44.87;;;19.30;;
41966;SDS011;27656;53.068;8.818;2024-02-28T12:17:26;44.90;;;19.30;;
41966;SDS011;27656;53.068;8.818;2024-02-28T12:19:54;46.73;;;19.97;;
41966;SDS011;27656;53.068;8.818;2024-02-28T12:22:22;52.03;;;20.40;;
41966;SDS011;27656;53.068;8.818;2024-02-28T12:24:48;51.60;;;20.93;;
41966;SDS011;27656;53.068;8.818;2024-02-28T12:27:15;45.30;;;21.10;;
41966;SDS011;27656;53.068;8.818;2024-02-28T12:29:41;52.93;;;21.77;;
41966;SDS011;27656;53.068;8.818;2024-02-28T12:32:08;49.37;;;19.63;;
41966;SDS011;27656;53.068;8.818;2024-02-28T12:34:35;45.73;;;20.50;;
41966;SDS011;27656;53.068;8.818;2024-02-28T12:37:01;44.53;;;19.87;;
41966;SDS011;27656;53.068;8.818;2024-02-28T12:39:30;46.57;;;19.90;;
41966;SDS011;27656;53.068;8.818;2024-02-28T12:41:58;47.60;;;20.73;;
41966;SDS011;27656;53.068;8.818;2024-02-28T12:44:25;43.57;;;19.60;;
41966;SDS011;27656;53.068;8.818;2024-02-28T12:46:51;37.47;;;15.53;;
41966;SDS011;27656;53.068;8.818;2024-02-28T12:49:18;44.87;;;21.03;;
41966;SDS011;27656;53.068;8.818;2024-02-28T12:51:45;42.73;;;19.23;;
41966;SDS011;27656;53.068;8.818;2024-02-28T12:54:13;46.43;;;21.20;;
41966;SDS011;27656;53.068;8.818;2024-02-28T12:56:40;40.47;;;20.27;;
41966;SDS011;27656;53.068;8.818;2024-02-28T12:59:10;45.33;;;19.90;;
41966;SDS011;27656;53.068;8.818;2024-02-28T13:01:37;38.13;;;17.13;;
41966;SDS011;27656;53.068;8.818;2024-02-28T13:04:04;39.20;;;18.50;;
41966;SDS011;27656;53.068;8.818;2024-02-28T13:06:31;35.83;;;18.30;;
41966;SDS011;27656;53.068;8.818;2024-02-28T13:08:58;38.50;;;19.17;;
41966;SDS011;27656;53.068;8.818;2024-02-28T13:11:24;40.13;;;19.17;;
41966;SDS011;27656;53.068;8.818;2024-02-28T13:13:52;43.67;;;20.83;;
41966;SDS011;27656;53.068;8.818;2024-02-28T13:16:19;39.70;;;20.30;;
41966;SDS011;27656;53.068;8.818;2024-02-28T13:18:46;37.93;;;18.73;;
41966;SDS011;27656;53.068;8.818;2024-02-28T13:21:13;38.63;;;20.03;;
41966;SDS011;27656;53.068;8.818;2024-02-28T13:23:40;44.13;;;20.30;;
41966;SDS011;27656;53.068;8.818;2024-02-28T13:26:06;40.00;;;20.77;;
41966;SDS011;27656;53.068;8.818;2024-02-28T13:28:34;42.00;;;19.97;;
41966;SDS011;27656;53.068;8.818;2024-02-28T13:31:02;38.10;;;19.57;;
41966;SDS011;27656;53.068;8.818;2024-02-28T13:33:32;37.10;;;19.20;;
41966;SDS011;27656;53.068;8.818;2024-02-28T13:35:59;39.07;;;19.43;;
41966;SDS011;27656;53.068;8.818;2024-02-28T13:38:26;38.87;;;19.43;;
41966;SDS011;27656;53.068;8.818;2024-02-28T13:40:53;45.37;;;19.70;;
41966;SDS011;27656;53.068;8.818;2024-02-28T13:43:19;38.47;;;19.00;;
41966;SDS011;27656;53.068;8.818;2024-02-28T13:45:46;40.83;;;20.27;;
41966;SDS011;27656;53.068;8.818;2024-02-28T13:48:18;39.77;;;20.77;;
41966;SDS011;27656;53.068;8.818;2024-02-28T13:50:47;43.63;;;21.87;;
41966;SDS011;27656;53.068;8.818;2024-02-28T13:53:15;41.40;;;21.43;;
41966;SDS011;27656;53.068;8.818;2024-02-28T13:55:42;46.77;;;22.50;;
41966;SDS011;27656;53.068;8.818;2024-02-28T13:58:17;44.63;;;21.37;;
41966;SDS011;27656;53.068;8.818;2024-02-28T14:00:53;45.63;;;21.70;;
41966;SDS011;27656;53.068;8.818;2024-02-28T14:03:20;45.80;;;21.73;;
41966;SDS011;27656;53.068;8.818;2024-02-28T14:05:47;48.83;;;23.90;;
41966;SDS011;27656;53.068;8.818;2024-02-28T14:08:13;48.07;;;23.07;;
41966;SDS011;27656;53.068;8.818;2024-02-28T14:10:40;56.27;;;26.70;;
41966;SDS011;27656;53.068;8.818;2024-02-28T14:13:06;48.17;;;23.30;;
41966;SDS011;27656;53.068;8.818;2024-02-28T14:15:33;50.90;;;23.37;;
41966;SDS011;27656;53.068;8.818;2024-02-28T14:18:02;40.40;;;19.20;;
41966;SDS011;27656;53.068;8.818;2024-02-28T14:20:29;45.03;;;21.10;;